Overview Statistics Trail Chart Weather Telemetry Raw packets
 

This is the latest recevied weather packets stored in our database for station/object IU7URP-17. If no packets are shown the sender has not sent any weather packets the latest 10 day(s).

<< 9 10 11 12 13 14 15 >>
Time Temp. Humidity Pressure Rain* Wind** Luminosity Snow
1788295734 25° C 89% 1018.9 hPa - - - -
1788294530 25° C 88% 1018.8 hPa - - - -
1788293326 25° C 88% 1018.8 hPa - - - -
1788292122 25.56° C 87% 1018.9 hPa - - - -
1788290918 25.56° C 87% 1018.7 hPa - - - -
1788289705 25.56° C 86% 1018.6 hPa - - - -
1788288503 25.56° C 86% 1018.3 hPa - - - -
1788287297 25.56° C 86% 1017.9 hPa - - - -
1788286093 25.56° C 85% 1017.5 hPa - - - -
1788284889 26.11° C 83% 1017.1 hPa - - - -
1788283685 26.11° C 80% 1017 hPa - - - -
1788282481 26.67° C 77% 1016.8 hPa - - - -
1788281277 27.78° C 72% 1016.8 hPa - - - -
1788280073 28.33° C 70% 1016.6 hPa - - - -
1788278868 28.89° C 66% 1016.4 hPa - - - -
1788277664 30° C 65% 1016.5 hPa - - - -
1788275255 30.56° C 65% 1016.4 hPa - - - -
1788274051 31.67° C 63% 1016.6 hPa - - - -
1788272847 32.22° C 60% 1016.7 hPa - - - -
1788271643 31.67° C 59% 1016.5 hPa - - - -
1788270439 31.67° C 59% 1016.7 hPa - - - -
1788269235 31.67° C 60% 1016.8 hPa - - - -
1788268031 32.78° C 56% 1016.6 hPa - - - -
1788266827 32.22° C 59% 1016.6 hPa - - - -
1788265623 33.33° C 57% 1016.7 hPa - - - -

* Rain since midnight (hover to see other rain measurements)
** Current wind speed in m/s (hover to see current wind gust speed)